sensor_id;sensor_type;location;lat;lon;timestamp;pressure;altitude;pressure_sealevel;temperature;humidity
62402;BME280;48440;51.224;22.506;2022-10-16T00:00:44;99500.88;;;12.37;69.68
62402;BME280;48440;51.224;22.506;2022-10-16T00:03:10;99504.38;;;12.33;69.83
62402;BME280;48440;51.224;22.506;2022-10-16T00:05:41;99505.41;;;12.27;70.11
62402;BME280;48440;51.224;22.506;2022-10-16T00:08:08;99510.03;;;12.26;69.84
62402;BME280;48440;51.224;22.506;2022-10-16T00:10:35;99517.94;;;12.28;70.33
62402;BME280;48440;51.224;22.506;2022-10-16T00:13:02;99509.00;;;12.32;70.02
62402;BME280;48440;51.224;22.506;2022-10-16T00:15:28;99506.22;;;12.27;70.20
62402;BME280;48440;51.224;22.506;2022-10-16T00:17:53;99502.13;;;12.24;69.93
62402;BME280;48440;51.224;22.506;2022-10-16T00:20:19;99513.53;;;12.21;70.39
62402;BME280;48440;51.224;22.506;2022-10-16T00:22:45;99515.47;;;12.21;70.36
62402;BME280;48440;51.224;22.506;2022-10-16T00:25:10;99515.72;;;12.19;70.42
62402;BME280;48440;51.224;22.506;2022-10-16T00:27:36;99506.19;;;12.22;70.39
62402;BME280;48440;51.224;22.506;2022-10-16T00:30:02;99514.06;;;12.18;70.37
62402;BME280;48440;51.224;22.506;2022-10-16T00:32:31;99510.78;;;12.16;70.20
62402;BME280;48440;51.224;22.506;2022-10-16T00:34:56;99515.81;;;12.03;70.63
62402;BME280;48440;51.224;22.506;2022-10-16T00:37:22;99510.69;;;12.06;70.80
62402;BME280;48440;51.224;22.506;2022-10-16T00:39:48;99524.81;;;12.03;70.65
62402;BME280;48440;51.224;22.506;2022-10-16T00:42:18;99528.03;;;12.00;70.64
62402;BME280;48440;51.224;22.506;2022-10-16T00:47:22;99529.44;;;12.03;70.76
62402;BME280;48440;51.224;22.506;2022-10-16T00:49:51;99536.72;;;11.97;70.84
62402;BME280;48440;51.224;22.506;2022-10-16T00:52:19;99541.06;;;11.98;70.81
62402;BME280;48440;51.224;22.506;2022-10-16T00:54:46;99527.47;;;11.93;70.81
62402;BME280;48440;51.224;22.506;2022-10-16T00:57:11;99541.56;;;11.90;71.07
62402;BME280;48440;51.224;22.506;2022-10-16T00:59:39;99541.31;;;11.92;71.38
62402;BME280;48440;51.224;22.506;2022-10-16T01:02:08;99548.84;;;11.84;71.40
62402;BME280;48440;51.224;22.506;2022-10-16T01:04:38;99552.13;;;11.86;71.14
62402;BME280;48440;51.224;22.506;2022-10-16T01:09:53;99554.28;;;11.84;70.98
62402;BME280;48440;51.224;22.506;2022-10-16T01:17:53;99560.03;;;11.88;70.73
62402;BME280;48440;51.224;22.506;2022-10-16T01:20:27;99545.31;;;11.84;71.26
62402;BME280;48440;51.224;22.506;2022-10-16T01:28:34;99546.81;;;11.75;71.07
62402;BME280;48440;51.224;22.506;2022-10-16T01:31:02;99538.06;;;11.73;71.20
62402;BME280;48440;51.224;22.506;2022-10-16T01:33:40;99535.63;;;11.71;71.20
62402;BME280;48440;51.224;22.506;2022-10-16T01:36:15;99532.88;;;11.66;71.58
62402;BME280;48440;51.224;22.506;2022-10-16T01:38:44;99538.00;;;11.63;71.52
62402;BME280;48440;51.224;22.506;2022-10-16T01:41:17;99536.34;;;11.62;71.35
62402;BME280;48440;51.224;22.506;2022-10-16T01:43:49;99548.88;;;11.63;71.68
62402;BME280;48440;51.224;22.506;2022-10-16T01:46:20;99542.84;;;11.61;71.73
62402;BME280;48440;51.224;22.506;2022-10-16T01:48:48;99543.44;;;11.63;71.91
62402;BME280;48440;51.224;22.506;2022-10-16T01:51:19;99542.84;;;11.61;71.71
62402;BME280;48440;51.224;22.506;2022-10-16T01:53:53;99546.72;;;11.65;71.81
62402;BME280;48440;51.224;22.506;2022-10-16T01:56:21;99550.75;;;11.62;71.79
62402;BME280;48440;51.224;22.506;2022-10-16T01:59:12;99539.31;;;11.60;71.71
62402;BME280;48440;51.224;22.506;2022-10-16T02:01:50;99548.56;;;11.59;71.74
62402;BME280;48440;51.224;22.506;2022-10-16T02:06:43;99556.63;;;11.54;72.04
62402;BME280;48440;51.224;22.506;2022-10-16T02:09:09;99543.31;;;11.52;71.90
62402;BME280;48440;51.224;22.506;2022-10-16T02:11:35;99551.41;;;11.47;71.73
62402;BME280;48440;51.224;22.506;2022-10-16T02:14:07;99550.31;;;11.48;72.23
62402;BME280;48440;51.224;22.506;2022-10-16T02:16:38;99543.22;;;11.42;72.28
62402;BME280;48440;51.224;22.506;2022-10-16T02:19:04;99538.88;;;11.46;72.20
62402;BME280;48440;51.224;22.506;2022-10-16T02:24:39;99553.19;;;11.37;72.62
62402;BME280;48440;51.224;22.506;2022-10-16T02:30:06;99553.44;;;11.35;72.87
62402;BME280;48440;51.224;22.506;2022-10-16T02:32:35;99560.53;;;11.36;72.91
62402;BME280;48440;51.224;22.506;2022-10-16T02:35:04;99562.66;;;11.34;72.86
62402;BME280;48440;51.224;22.506;2022-10-16T02:37:30;99561.78;;;11.29;73.09
62402;BME280;48440;51.224;22.506;2022-10-16T02:39:57;99565.56;;;11.28;72.89
62402;BME280;48440;51.224;22.506;2022-10-16T02:42:29;99577.00;;;11.30;73.18
62402;BME280;48440;51.224;22.506;2022-10-16T02:44:55;99579.72;;;11.30;72.71
62402;BME280;48440;51.224;22.506;2022-10-16T02:47:21;99579.41;;;11.26;72.67
62402;BME280;48440;51.224;22.506;2022-10-16T02:49:46;99576.13;;;11.24;72.87
62402;BME280;48440;51.224;22.506;2022-10-16T02:52:12;99572.56;;;11.23;73.12
62402;BME280;48440;51.224;22.506;2022-10-16T02:54:38;99564.69;;;11.22;73.07
62402;BME280;48440;51.224;22.506;2022-10-16T02:57:03;99564.09;;;11.20;73.33
62402;BME280;48440;51.224;22.506;2022-10-16T02:59:29;99567.34;;;11.17;72.93
62402;BME280;48440;51.224;22.506;2022-10-16T03:01:54;99556.22;;;11.18;73.08
62402;BME280;48440;51.224;22.506;2022-10-16T03:04:20;99553.78;;;11.17;73.16
62402;BME280;48440;51.224;22.506;2022-10-16T03:06:45;99561.91;;;11.17;73.73
62402;BME280;48440;51.224;22.506;2022-10-16T03:09:11;99556.75;;;11.15;73.23
62402;BME280;48440;51.224;22.506;2022-10-16T03:11:37;99564.63;;;11.17;73.70
62402;BME280;48440;51.224;22.506;2022-10-16T03:14:02;99564.06;;;11.15;73.71
62402;BME280;48440;51.224;22.506;2022-10-16T03:16:28;99576.00;;;11.14;73.88
62402;BME280;48440;51.224;22.506;2022-10-16T03:18:54;99585.47;;;11.11;73.54
62402;BME280;48440;51.224;22.506;2022-10-16T03:21:20;99588.69;;;11.08;73.40
62402;BME280;48440;51.224;22.506;2022-10-16T03:23:45;99577.56;;;11.10;73.52
62402;BME280;48440;51.224;22.506;2022-10-16T03:26:12;99575.09;;;11.08;73.50
62402;BME280;48440;51.224;22.506;2022-10-16T03:28:38;99584.06;;;11.09;73.78
62402;BME280;48440;51.224;22.506;2022-10-16T03:31:04;99588.59;;;11.03;74.02
62402;BME280;48440;51.224;22.506;2022-10-16T03:33:29;99592.41;;;11.02;73.94
62402;BME280;48440;51.224;22.506;2022-10-16T03:35:55;99585.06;;;11.03;74.13
62402;BME280;48440;51.224;22.506;2022-10-16T03:38:21;99595.69;;;11.04;74.04
62402;BME280;48440;51.224;22.506;2022-10-16T03:40:47;99589.34;;;10.99;73.98
62402;BME280;48440;51.224;22.506;2022-10-16T03:43:13;99586.56;;;10.94;74.33
62402;BME280;48440;51.224;22.506;2022-10-16T03:45:39;99581.38;;;10.92;74.19
62402;BME280;48440;51.224;22.506;2022-10-16T03:48:05;99588.69;;;10.92;74.36
62402;BME280;48440;51.224;22.506;2022-10-16T03:50:31;99591.41;;;10.92;74.30
62402;BME280;48440;51.224;22.506;2022-10-16T03:52:57;99592.81;;;10.94;74.55
62402;BME280;48440;51.224;22.506;2022-10-16T03:55:23;99589.53;;;10.92;74.58
62402;BME280;48440;51.224;22.506;2022-10-16T03:57:48;99590.34;;;10.93;74.70
62402;BME280;48440;51.224;22.506;2022-10-16T04:00:13;99590.63;;;10.91;74.92
62402;BME280;48440;51.224;22.506;2022-10-16T04:02:40;99594.41;;;10.90;74.81
62402;BME280;48440;51.224;22.506;2022-10-16T04:05:06;99591.41;;;10.92;74.73
62402;BME280;48440;51.224;22.506;2022-10-16T04:07:32;99598.19;;;10.89;75.20
62402;BME280;48440;51.224;22.506;2022-10-16T04:09:58;99595.78;;;10.93;75.37
62402;BME280;48440;51.224;22.506;2022-10-16T04:12:25;99604.19;;;10.91;75.08
62402;BME280;48440;51.224;22.506;2022-10-16T04:14:51;99600.91;;;10.89;75.29
62402;BME280;48440;51.224;22.506;2022-10-16T04:17:17;99609.63;;;10.91;75.18
62402;BME280;48440;51.224;22.506;2022-10-16T04:19:43;99606.38;;;10.94;75.32
62402;BME280;48440;51.224;22.506;2022-10-16T04:22:09;99615.94;;;10.97;74.81
62402;BME280;48440;51.224;22.506;2022-10-16T04:24:35;99613.72;;;10.94;75.20
62402;BME280;48440;51.224;22.506;2022-10-16T04:27:01;99614.28;;;10.96;75.08
62402;BME280;48440;51.224;22.506;2022-10-16T04:29:26;99608.84;;;10.96;75.31
62402;BME280;48440;51.224;22.506;2022-10-16T04:31:52;99610.75;;;10.95;74.81
62402;BME280;48440;51.224;22.506;2022-10-16T04:34:18;99609.69;;;10.96;74.64
62402;BME280;48440;51.224;22.506;2022-10-16T04:36:43;99618.91;;;10.95;75.31
62402;BME280;48440;51.224;22.506;2022-10-16T04:39:11;99614.53;;;10.94;75.01
62402;BME280;48440;51.224;22.506;2022-10-16T04:41:37;99618.66;;;10.97;75.50
62402;BME280;48440;51.224;22.506;2022-10-16T04:44:02;99623.59;;;11.00;75.38
62402;BME280;48440;51.224;22.506;2022-10-16T04:46:28;99619.81;;;11.01;75.14
62402;BME280;48440;51.224;22.506;2022-10-16T04:48:54;99624.97;;;11.02;75.19
62402;BME280;48440;51.224;22.506;2022-10-16T04:51:20;99626.38;;;11.05;75.41
62402;BME280;48440;51.224;22.506;2022-10-16T04:53:46;99621.78;;;11.05;75.49
62402;BME280;48440;51.224;22.506;2022-10-16T04:56:11;99632.13;;;11.08;75.46
62402;BME280;48440;51.224;22.506;2022-10-16T04:58:37;99630.56;;;11.12;75.31
62402;BME280;48440;51.224;22.506;2022-10-16T05:01:03;99634.44;;;11.16;75.44
62402;BME280;48440;51.224;22.506;2022-10-16T05:03:29;99625.75;;;11.19;75.36
62402;BME280;48440;51.224;22.506;2022-10-16T05:05:55;99627.66;;;11.19;75.60
62402;BME280;48440;51.224;22.506;2022-10-16T05:08:22;99629.63;;;11.23;75.48
62402;BME280;48440;51.224;22.506;2022-10-16T05:10:48;99631.34;;;11.30;75.49
62402;BME280;48440;51.224;22.506;2022-10-16T05:13:14;99633.47;;;11.28;75.71
62402;BME280;48440;51.224;22.506;2022-10-16T05:15:46;99630.19;;;11.26;75.78
62402;BME280;48440;51.224;22.506;2022-10-16T05:18:13;99634.63;;;11.32;75.61
62402;BME280;48440;51.224;22.506;2022-10-16T05:20:38;99636.53;;;11.31;75.69
62402;BME280;48440;51.224;22.506;2022-10-16T05:23:04;99641.13;;;11.31;75.67
62402;BME280;48440;51.224;22.506;2022-10-16T05:25:30;99635.44;;;11.32;75.54
62402;BME280;48440;51.224;22.506;2022-10-16T05:27:56;99636.53;;;11.31;75.82
62402;BME280;48440;51.224;22.506;2022-10-16T05:30:22;99643.34;;;11.34;75.93
62402;BME280;48440;51.224;22.506;2022-10-16T05:32:48;99642.53;;;11.33;75.92
62402;BME280;48440;51.224;22.506;2022-10-16T05:35:18;99646.66;;;11.36;75.77
62402;BME280;48440;51.224;22.506;2022-10-16T05:37:44;99644.75;;;11.36;75.68
62402;BME280;48440;51.224;22.506;2022-10-16T05:40:09;99639.31;;;11.36;75.57
62402;BME280;48440;51.224;22.506;2022-10-16T05:42:35;99647.47;;;11.36;76.05
62402;BME280;48440;51.224;22.506;2022-10-16T05:45:01;99649.38;;;11.36;76.25
62402;BME280;48440;51.224;22.506;2022-10-16T05:47:27;99656.19;;;11.38;75.66
62402;BME280;48440;51.224;22.506;2022-10-16T05:49:52;99659.22;;;11.42;75.59
62402;BME280;48440;51.224;22.506;2022-10-16T05:52:18;99660.31;;;11.41;75.85
62402;BME280;48440;51.224;22.506;2022-10-16T05:54:44;99666.00;;;11.39;76.21
62402;BME280;48440;51.224;22.506;2022-10-16T05:57:10;99673.56;;;11.37;76.42
62402;BME280;48440;51.224;22.506;2022-10-16T05:59:35;99674.97;;;11.40;76.13
62402;BME280;48440;51.224;22.506;2022-10-16T06:02:01;99674.72;;;11.41;76.14
62402;BME280;48440;51.224;22.506;2022-10-16T06:04:27;99679.91;;;11.43;76.26
62402;BME280;48440;51.224;22.506;2022-10-16T06:06:53;99689.66;;;11.44;76.33
62402;BME280;48440;51.224;22.506;2022-10-16T06:09:18;99681.25;;;11.45;76.23
62402;BME280;48440;51.224;22.506;2022-10-16T06:11:44;99694.03;;;11.45;76.23
62402;BME280;48440;51.224;22.506;2022-10-16T06:14:10;99700.63;;;11.49;75.96
62402;BME280;48440;51.224;22.506;2022-10-16T06:16:36;99696.81;;;11.50;76.71
62402;BME280;48440;51.224;22.506;2022-10-16T06:19:03;99703.91;;;11.51;76.50
62402;BME280;48440;51.224;22.506;2022-10-16T06:21:31;99700.38;;;11.50;76.42
62402;BME280;48440;51.224;22.506;2022-10-16T06:23:58;99707.69;;;11.50;77.22
62402;BME280;48440;51.224;22.506;2022-10-16T06:26:27;99710.00;;;11.58;76.57
62402;BME280;48440;51.224;22.506;2022-10-16T06:28:57;99713.28;;;11.60;76.42
62402;BME280;48440;51.224;22.506;2022-10-16T06:31:24;99716.81;;;11.61;76.34
62402;BME280;48440;51.224;22.506;2022-10-16T06:33:53;99716.06;;;11.65;76.55
62402;BME280;48440;51.224;22.506;2022-10-16T06:36:19;99715.00;;;11.66;76.16
62402;BME280;48440;51.224;22.506;2022-10-16T06:38:46;99722.44;;;11.76;75.86
62402;BME280;48440;51.224;22.506;2022-10-16T06:41:14;99726.34;;;11.80;75.77
62402;BME280;48440;51.224;22.506;2022-10-16T06:43:46;99739.44;;;11.83;75.60
62402;BME280;48440;51.224;22.506;2022-10-16T06:46:14;99737.38;;;11.90;75.38
62402;BME280;48440;51.224;22.506;2022-10-16T06:48:41;99736.59;;;11.95;75.37
62402;BME280;48440;51.224;22.506;2022-10-16T06:51:11;99733.69;;;12.01;75.44
62402;BME280;48440;51.224;22.506;2022-10-16T06:53:43;99734.50;;;12.02;74.91
62402;BME280;48440;51.224;22.506;2022-10-16T06:56:15;99729.94;;;12.07;74.66
62402;BME280;48440;51.224;22.506;2022-10-16T06:58:42;99737.66;;;12.15;74.56
62402;BME280;48440;51.224;22.506;2022-10-16T07:01:08;99741.31;;;12.26;74.14
62402;BME280;48440;51.224;22.506;2022-10-16T07:03:37;99727.13;;;12.46;73.43
62402;BME280;48440;51.224;22.506;2022-10-16T07:06:06;99732.03;;;13.08;71.76
62402;BME280;48440;51.224;22.506;2022-10-16T07:08:33;99730.25;;;13.18;70.99
62402;BME280;48440;51.224;22.506;2022-10-16T07:11:04;99722.19;;;13.91;68.62
62402;BME280;48440;51.224;22.506;2022-10-16T07:13:31;99737.22;;;14.86;64.70
62402;BME280;48440;51.224;22.506;2022-10-16T07:16:13;99737.75;;;14.68;64.65
62402;BME280;48440;51.224;22.506;2022-10-16T07:18:39;99743.19;;;14.53;64.82
62402;BME280;48440;51.224;22.506;2022-10-16T07:21:06;99746.81;;;14.06;66.71
62402;BME280;48440;51.224;22.506;2022-10-16T07:23:32;99758.94;;;13.73;67.24
62402;BME280;48440;51.224;22.506;2022-10-16T07:25:58;99762.09;;;13.50;68.46
62402;BME280;48440;51.224;22.506;2022-10-16T07:28:28;99755.69;;;13.34;69.49
62402;BME280;48440;51.224;22.506;2022-10-16T07:31:09;99765.16;;;13.27;69.65
62402;BME280;48440;51.224;22.506;2022-10-16T07:33:37;99763.75;;;13.19;70.54
62402;BME280;48440;51.224;22.506;2022-10-16T07:36:03;99769.50;;;13.22;70.14
62402;BME280;48440;51.224;22.506;2022-10-16T07:38:29;99771.94;;;13.19;70.42
62402;BME280;48440;51.224;22.506;2022-10-16T07:40:59;99772.25;;;13.22;70.68
62402;BME280;48440;51.224;22.506;2022-10-16T07:43:26;99781.81;;;13.30;71.00
62402;BME280;48440;51.224;22.506;2022-10-16T07:45:53;99763.66;;;13.41;70.51
62402;BME280;48440;51.224;22.506;2022-10-16T07:48:38;99768.75;;;13.69;69.36
62402;BME280;48440;51.224;22.506;2022-10-16T07:51:11;99760.97;;;14.66;66.84
62402;BME280;48440;51.224;22.506;2022-10-16T07:53:37;99760.63;;;15.99;61.88
62402;BME280;48440;51.224;22.506;2022-10-16T07:56:07;99749.34;;;17.38;58.13
62402;BME280;48440;51.224;22.506;2022-10-16T07:58:34;99747.75;;;18.33;55.51
62402;BME280;48440;51.224;22.506;2022-10-16T08:01:07;99742.03;;;19.04;52.72
62402;BME280;48440;51.224;22.506;2022-10-16T08:03:33;99741.31;;;19.31;51.81
62402;BME280;48440;51.224;22.506;2022-10-16T08:05:59;99740.25;;;19.46;51.16
62402;BME280;48440;51.224;22.506;2022-10-16T08:08:25;99742.84;;;19.56;50.25
62402;BME280;48440;51.224;22.506;2022-10-16T08:10:51;99721.16;;;19.36;50.06
62402;BME280;48440;51.224;22.506;2022-10-16T08:13:17;99730.91;;;19.28;50.68
62402;BME280;48440;51.224;22.506;2022-10-16T08:15:43;99726.97;;;19.34;50.44
62402;BME280;48440;51.224;22.506;2022-10-16T08:18:10;99733.19;;;19.86;49.78
62402;BME280;48440;51.224;22.506;2022-10-16T08:20:36;99736.44;;;20.15;49.49
62402;BME280;48440;51.224;22.506;2022-10-16T08:23:02;99743.38;;;20.13;48.38
62402;BME280;48440;51.224;22.506;2022-10-16T08:25:28;99740.00;;;20.16;48.71
62402;BME280;48440;51.224;22.506;2022-10-16T08:27:54;99748.28;;;20.16;48.55
62402;BME280;48440;51.224;22.506;2022-10-16T08:30:21;99741.81;;;20.34;47.82
62402;BME280;48440;51.224;22.506;2022-10-16T08:32:47;99742.41;;;20.72;47.16
62402;BME280;48440;51.224;22.506;2022-10-16T08:35:13;99756.09;;;20.99;46.60
62402;BME280;48440;51.224;22.506;2022-10-16T08:37:39;99756.97;;;21.31;46.30
62402;BME280;48440;51.224;22.506;2022-10-16T08:40:06;99756.09;;;21.44;45.36
62402;BME280;48440;51.224;22.506;2022-10-16T08:48:20;99760.00;;;21.43;46.30
62402;BME280;48440;51.224;22.506;2022-10-16T08:50:50;99761.38;;;21.32;45.56
62402;BME280;48440;51.224;22.506;2022-10-16T09:06:45;99786.16;;;19.31;50.45
62402;BME280;48440;51.224;22.506;2022-10-16T09:18:58;99802.78;;;17.12;57.81
62402;BME280;48440;51.224;22.506;2022-10-16T09:21:31;99811.84;;;17.07;58.54
62402;BME280;48440;51.224;22.506;2022-10-16T09:24:10;99812.19;;;16.95;59.49
62402;BME280;48440;51.224;22.506;2022-10-16T09:26:37;99809.81;;;16.84;60.29
62402;BME280;48440;51.224;22.506;2022-10-16T09:29:03;99808.50;;;16.71;59.79
62402;BME280;48440;51.224;22.506;2022-10-16T09:31:29;99809.13;;;16.53;60.00
62402;BME280;48440;51.224;22.506;2022-10-16T09:33:59;99804.25;;;16.40;60.32
62402;BME280;48440;51.224;22.506;2022-10-16T09:39:06;99807.06;;;16.24;61.09
62402;BME280;48440;51.224;22.506;2022-10-16T09:41:55;99807.06;;;16.24;61.74
62402;BME280;48440;51.224;22.506;2022-10-16T09:47:31;99804.59;;;16.18;61.28
62402;BME280;48440;51.224;22.506;2022-10-16T09:50:26;99800.75;;;16.24;60.36
62402;BME280;48440;51.224;22.506;2022-10-16T09:53:21;99807.06;;;16.24;60.85
62402;BME280;48440;51.224;22.506;2022-10-16T09:55:56;99807.34;;;16.23;60.78
62402;BME280;48440;51.224;22.506;2022-10-16T10:04:03;99802.13;;;16.26;60.67
62402;BME280;48440;51.224;22.506;2022-10-16T10:06:33;99808.69;;;16.25;60.75
62402;BME280;48440;51.224;22.506;2022-10-16T10:11:43;99813.34;;;16.30;60.45
62402;BME280;48440;51.224;22.506;2022-10-16T10:14:37;99817.44;;;16.27;61.18
62402;BME280;48440;51.224;22.506;2022-10-16T10:20:35;99825.66;;;16.27;61.28
62402;BME280;48440;51.224;22.506;2022-10-16T10:31:12;99825.94;;;16.31;60.34
62402;BME280;48440;51.224;22.506;2022-10-16T10:37:02;99824.22;;;16.45;60.20
62402;BME280;48440;51.224;22.506;2022-10-16T10:47:41;99800.03;;;16.68;59.90
62402;BME280;48440;51.224;22.506;2022-10-16T11:01:14;99798.84;;;16.84;60.37
62402;BME280;48440;51.224;22.506;2022-10-16T11:03:58;99797.50;;;16.81;60.10
62402;BME280;48440;51.224;22.506;2022-10-16T11:06:43;99793.97;;;16.71;60.30
62402;BME280;48440;51.224;22.506;2022-10-16T16:40:32;99876.88;;;16.27;65.51
62402;BME280;48440;51.224;22.506;2022-10-16T17:27:31;99917.16;;;15.86;65.52
62402;BME280;48440;51.224;22.506;2022-10-16T20:42:50;100076.28;;;14.85;64.40
62402;BME280;48440;51.224;22.506;2022-10-16T20:45:19;100070.56;;;14.86;64.59
62402;BME280;48440;51.224;22.506;2022-10-16T20:47:45;100074.66;;;14.89;64.52
62402;BME280;48440;51.224;22.506;2022-10-16T20:53:27;100089.38;;;14.83;64.61
62402;BME280;48440;51.224;22.506;2022-10-16T20:55:53;100084.72;;;14.83;64.55
62402;BME280;48440;51.224;22.506;2022-10-16T20:58:19;100089.38;;;14.83;64.29
62402;BME280;48440;51.224;22.506;2022-10-16T21:00:45;100094.03;;;14.82;64.17
62402;BME280;48440;51.224;22.506;2022-10-16T21:03:11;100097.03;;;14.81;64.59
62402;BME280;48440;51.224;22.506;2022-10-16T21:05:41;100096.47;;;14.79;64.36
62402;BME280;48440;51.224;22.506;2022-10-16T21:08:07;100097.56;;;14.78;64.40
62402;BME280;48440;51.224;22.506;2022-10-16T21:10:33;100102.22;;;14.77;64.51
62402;BME280;48440;51.224;22.506;2022-10-16T21:13:21;100101.09;;;14.73;64.44
62402;BME280;48440;51.224;22.506;2022-10-16T21:16:01;100099.16;;;14.74;64.53
62402;BME280;48440;51.224;22.506;2022-10-16T21:18:33;100101.34;;;14.72;64.68
62402;BME280;48440;51.224;22.506;2022-10-16T21:20:58;100118.25;;;14.69;64.90
62402;BME280;48440;51.224;22.506;2022-10-16T21:23:24;100123.41;;;14.65;64.98
62402;BME280;48440;51.224;22.506;2022-10-16T21:25:50;100119.28;;;14.63;65.17
62402;BME280;48440;51.224;22.506;2022-10-16T21:28:17;100127.75;;;14.61;64.87
62402;BME280;48440;51.224;22.506;2022-10-16T21:30:49;100121.47;;;14.60;65.02
62402;BME280;48440;51.224;22.506;2022-10-16T21:33:22;100121.97;;;14.57;65.07
62402;BME280;48440;51.224;22.506;2022-10-16T21:35:49;100129.34;;;14.57;65.18
62402;BME280;48440;51.224;22.506;2022-10-16T21:38:15;100134.78;;;14.52;64.96
62402;BME280;48440;51.224;22.506;2022-10-16T21:40:46;100130.94;;;14.48;65.19
62402;BME280;48440;51.224;22.506;2022-10-16T21:43:22;100131.19;;;14.46;65.13
62402;BME280;48440;51.224;22.506;2022-10-16T21:46:45;100133.88;;;14.41;65.54
62402;BME280;48440;51.224;22.506;2022-10-16T21:54:27;100143.06;;;14.35;65.66
62402;BME280;48440;51.224;22.506;2022-10-16T21:57:17;100140.03;;;14.32;65.58
62402;BME280;48440;51.224;22.506;2022-10-16T22:15:21;100164.50;;;14.21;65.47
62402;BME280;48440;51.224;22.506;2022-10-16T22:46:45;100174.34;;;14.22;65.61
62402;BME280;48440;51.224;22.506;2022-10-16T23:08:30;100169.03;;;14.11;65.87
62402;BME280;48440;51.224;22.506;2022-10-16T23:11:28;100172.25;;;14.08;65.63
62402;BME280;48440;51.224;22.506;2022-10-16T23:14:02;100173.31;;;14.02;66.19
62402;BME280;48440;51.224;22.506;2022-10-16T23:16:49;100164.00;;;13.98;66.11
62402;BME280;48440;51.224;22.506;2022-10-16T23:22:02;100170.53;;;13.97;66.22
62402;BME280;48440;51.224;22.506;2022-10-16T23:24:41;100171.59;;;13.96;66.15
62402;BME280;48440;51.224;22.506;2022-10-16T23:27:07;100176.50;;;13.93;66.15
62402;BME280;48440;51.224;22.506;2022-10-16T23:29:34;100174.25;;;13.90;66.12
62402;BME280;48440;51.224;22.506;2022-10-16T23:32:00;100176.09;;;13.85;66.30
62402;BME280;48440;51.224;22.506;2022-10-16T23:42:19;100189.38;;;13.76;66.28
62402;BME280;48440;51.224;22.506;2022-10-16T23:45:00;100190.72;;;13.74;66.40
62402;BME280;48440;51.224;22.506;2022-10-16T23:50:05;100197.75;;;13.70;66.53
62402;BME280;48440;51.224;22.506;2022-10-16T23:55:15;100205.94;;;13.70;66.51
62402;BME280;48440;51.224;22.506;2022-10-16T23:57:42;100202.63;;;13.68;66.19
